sensor_id;sensor_type;location;lat;lon;timestamp;pressure;altitude;pressure_sealevel;temperature;humidity
49973;BME280;65693;49.798;10.968;2023-05-22T00:02:07;97889.63;;;20.50;48.09
49973;BME280;65693;49.798;10.968;2023-05-22T00:04:34;97892.16;;;20.52;48.11
49973;BME280;65693;49.798;10.968;2023-05-22T00:07:02;97899.56;;;20.50;48.33
49973;BME280;65693;49.798;10.968;2023-05-22T00:09:28;97888.44;;;20.44;48.49
49973;BME280;65693;49.798;10.968;2023-05-22T00:11:55;97890.31;;;20.44;48.57
49973;BME280;65693;49.798;10.968;2023-05-22T00:14:21;97890.31;;;20.44;48.22
49973;BME280;65693;49.798;10.968;2023-05-22T00:16:48;97884.25;;;20.42;48.53
49973;BME280;65693;49.798;10.968;2023-05-22T00:19:14;97887.09;;;20.40;48.25
49973;BME280;65693;49.798;10.968;2023-05-22T00:21:42;97880.22;;;20.38;48.27
49973;BME280;65693;49.798;10.968;2023-05-22T00:24:10;97878.56;;;20.37;48.35
49973;BME280;65693;49.798;10.968;2023-05-22T00:26:37;97873.31;;;20.35;48.46
49973;BME280;65693;49.798;10.968;2023-05-22T00:29:03;97881.41;;;20.35;48.58
49973;BME280;65693;49.798;10.968;2023-05-22T00:31:30;97878.88;;;20.34;48.54
49973;BME280;65693;49.798;10.968;2023-05-22T00:33:57;97887.94;;;20.32;48.42
49973;BME280;65693;49.798;10.968;2023-05-22T00:36:23;97874.34;;;20.34;48.51
49973;BME280;65693;49.798;10.968;2023-05-22T00:38:50;97875.50;;;20.31;48.23
49973;BME280;65693;49.798;10.968;2023-05-22T00:41:17;97865.25;;;20.27;48.49
49973;BME280;65693;49.798;10.968;2023-05-22T00:43:44;97874.00;;;20.29;48.27
49973;BME280;65693;49.798;10.968;2023-05-22T00:46:11;97869.13;;;20.24;48.36
49973;BME280;65693;49.798;10.968;2023-05-22T00:48:38;97869.94;;;20.25;48.38
49973;BME280;65693;49.798;10.968;2023-05-22T00:51:05;97865.59;;;20.24;48.35
49973;BME280;65693;49.798;10.968;2023-05-22T00:53:32;97870.28;;;20.22;48.48
49973;BME280;65693;49.798;10.968;2023-05-22T00:55:59;97864.22;;;20.20;48.26
49973;BME280;65693;49.798;10.968;2023-05-22T00:58:26;97860.66;;;20.19;48.41
49973;BME280;65693;49.798;10.968;2023-05-22T01:00:53;97862.69;;;20.17;48.81
49973;BME280;65693;49.798;10.968;2023-05-22T01:03:20;97863.69;;;20.16;48.35
49973;BME280;65693;49.798;10.968;2023-05-22T01:05:50;97860.84;;;20.17;48.61
49973;BME280;65693;49.798;10.968;2023-05-22T01:08:17;97860.53;;;20.12;48.57
49973;BME280;65693;49.798;10.968;2023-05-22T01:10:44;97866.72;;;20.13;48.49
49973;BME280;65693;49.798;10.968;2023-05-22T01:13:18;97860.53;;;20.12;48.64
49973;BME280;65693;49.798;10.968;2023-05-22T01:15:54;97862.53;;;20.10;48.40
49973;BME280;65693;49.798;10.968;2023-05-22T01:18:27;97868.91;;;20.09;48.66
49973;BME280;65693;49.798;10.968;2023-05-22T01:21:01;97857.47;;;20.07;48.63
49973;BME280;65693;49.798;10.968;2023-05-22T01:23:58;97852.28;;;20.06;48.47
49973;BME280;65693;49.798;10.968;2023-05-22T01:27:05;97857.81;;;20.04;48.70
49973;BME280;65693;49.798;10.968;2023-05-22T01:29:46;97857.81;;;20.04;48.49
49973;BME280;65693;49.798;10.968;2023-05-22T01:32:20;97864.22;;;20.03;48.58
49973;BME280;65693;49.798;10.968;2023-05-22T01:34:55;97856.28;;;20.01;48.85
49973;BME280;65693;49.798;10.968;2023-05-22T01:37:26;97859.84;;;20.02;48.75
49973;BME280;65693;49.798;10.968;2023-05-22T01:39:53;97858.50;;;19.98;48.80
49973;BME280;65693;49.798;10.968;2023-05-22T01:42:21;97855.81;;;19.98;48.50
49973;BME280;65693;49.798;10.968;2023-05-22T01:44:47;97856.97;;;19.95;48.63
49973;BME280;65693;49.798;10.968;2023-05-22T01:47:14;97854.28;;;19.95;48.46
49973;BME280;65693;49.798;10.968;2023-05-22T01:49:43;97855.97;;;19.96;48.74
49973;BME280;65693;49.798;10.968;2023-05-22T01:52:16;97854.28;;;19.95;48.47
49973;BME280;65693;49.798;10.968;2023-05-22T01:54:50;97859.00;;;19.93;48.67
49973;BME280;65693;49.798;10.968;2023-05-22T01:57:21;97856.47;;;19.92;48.54
49973;BME280;65693;49.798;10.968;2023-05-22T01:59:54;97853.63;;;19.93;48.40
49973;BME280;65693;49.798;10.968;2023-05-22T02:02:22;97859.50;;;19.88;48.59
49973;BME280;65693;49.798;10.968;2023-05-22T02:04:55;97854.09;;;19.88;48.67
49973;BME280;65693;49.798;10.968;2023-05-22T02:07:23;97856.13;;;19.86;48.73
49973;BME280;65693;49.798;10.968;2023-05-22T02:09:52;97854.44;;;19.85;48.74
49973;BME280;65693;49.798;10.968;2023-05-22T02:12:20;97851.09;;;19.83;48.79
49973;BME280;65693;49.798;10.968;2023-05-22T02:14:48;97851.09;;;19.83;48.44
49973;BME280;65693;49.798;10.968;2023-05-22T02:17:14;97845.19;;;19.80;48.79
49973;BME280;65693;49.798;10.968;2023-05-22T02:19:42;97851.56;;;19.79;48.60
49973;BME280;65693;49.798;10.968;2023-05-22T02:22:09;97847.22;;;19.78;48.81
49973;BME280;65693;49.798;10.968;2023-05-22T02:24:39;97845.53;;;19.77;48.70
49973;BME280;65693;49.798;10.968;2023-05-22T02:27:06;97843.19;;;19.73;48.94
49973;BME280;65693;49.798;10.968;2023-05-22T02:29:34;97845.88;;;19.73;48.73
49973;BME280;65693;49.798;10.968;2023-05-22T02:32:01;97835.94;;;19.74;48.73
49973;BME280;65693;49.798;10.968;2023-05-22T02:34:28;97842.50;;;19.71;48.87
49973;BME280;65693;49.798;10.968;2023-05-22T02:36:55;97837.28;;;19.70;48.70
49973;BME280;65693;49.798;10.968;2023-05-22T02:39:23;97840.84;;;19.70;48.61
49973;BME280;65693;49.798;10.968;2023-05-22T02:41:49;97839.47;;;19.66;48.87
49973;BME280;65693;49.798;10.968;2023-05-22T02:44:16;97834.06;;;19.66;48.70
49973;BME280;65693;49.798;10.968;2023-05-22T02:46:42;97830.72;;;19.64;48.88
49973;BME280;65693;49.798;10.968;2023-05-22T02:49:09;97835.28;;;19.64;48.61
49973;BME280;65693;49.798;10.968;2023-05-22T02:51:36;97830.72;;;19.64;48.88
49973;BME280;65693;49.798;10.968;2023-05-22T02:54:02;97830.91;;;19.63;48.69
49973;BME280;65693;49.798;10.968;2023-05-22T02:56:30;97832.72;;;19.62;48.80
49973;BME280;65693;49.798;10.968;2023-05-22T02:58:56;97834.75;;;19.60;48.92
49973;BME280;65693;49.798;10.968;2023-05-22T03:01:23;97838.44;;;19.59;48.93
49973;BME280;65693;49.798;10.968;2023-05-22T03:03:50;97840.13;;;19.60;48.91
49973;BME280;65693;49.798;10.968;2023-05-22T03:06:18;97836.59;;;19.59;48.74
49973;BME280;65693;49.798;10.968;2023-05-22T03:08:45;97842.28;;;19.56;48.74
49973;BME280;65693;49.798;10.968;2023-05-22T03:11:12;97844.16;;;19.56;48.91
49973;BME280;65693;49.798;10.968;2023-05-22T03:13:40;97845.16;;;19.55;48.99
49973;BME280;65693;49.798;10.968;2023-05-22T03:16:06;97850.34;;;19.56;48.80
49973;BME280;65693;49.798;10.968;2023-05-22T03:18:33;97853.38;;;19.53;48.81
49973;BME280;65693;49.798;10.968;2023-05-22T03:21:00;97849.00;;;19.52;48.89
49973;BME280;65693;49.798;10.968;2023-05-22T03:23:26;97854.72;;;19.49;49.12
49973;BME280;65693;49.798;10.968;2023-05-22T03:25:53;97859.25;;;19.49;48.93
49973;BME280;65693;49.798;10.968;2023-05-22T03:28:19;97852.19;;;19.47;48.92
49973;BME280;65693;49.798;10.968;2023-05-22T03:30:47;97855.88;;;19.46;49.01
49973;BME280;65693;49.798;10.968;2023-05-22T03:33:13;97855.06;;;19.46;48.84
49973;BME280;65693;49.798;10.968;2023-05-22T03:35:41;97851.50;;;19.45;48.84
49973;BME280;65693;49.798;10.968;2023-05-22T03:38:08;97851.66;;;19.44;48.79
49973;BME280;65693;49.798;10.968;2023-05-22T03:40:35;97849.31;;;19.41;48.90
49973;BME280;65693;49.798;10.968;2023-05-22T03:43:01;97853.53;;;19.43;48.80
49973;BME280;65693;49.798;10.968;2023-05-22T03:45:28;97858.56;;;19.38;48.83
49973;BME280;65693;49.798;10.968;2023-05-22T03:47:55;97856.69;;;19.39;48.85
49973;BME280;65693;49.798;10.968;2023-05-22T03:50:22;97847.81;;;19.38;49.05
49973;BME280;65693;49.798;10.968;2023-05-22T03:52:48;97846.13;;;19.37;48.89
49973;BME280;65693;49.798;10.968;2023-05-22T03:55:14;97850.66;;;19.37;48.83
49973;BME280;65693;49.798;10.968;2023-05-22T03:57:41;97857.03;;;19.36;48.98
49973;BME280;65693;49.798;10.968;2023-05-22T04:00:09;97843.59;;;19.36;48.85
49973;BME280;65693;49.798;10.968;2023-05-22T04:02:50;97849.97;;;19.35;48.98
49973;BME280;65693;49.798;10.968;2023-05-22T04:05:20;97856.50;;;19.32;48.94
49973;BME280;65693;49.798;10.968;2023-05-22T04:07:47;97851.31;;;19.30;48.98
49973;BME280;65693;49.798;10.968;2023-05-22T04:10:13;97858.50;;;19.30;49.16
49973;BME280;65693;49.798;10.968;2023-05-22T04:12:40;97859.38;;;19.30;49.01
49973;BME280;65693;49.798;10.968;2023-05-22T04:15:07;97863.34;;;19.26;49.11
49973;BME280;65693;49.798;10.968;2023-05-22T04:17:39;97873.94;;;19.28;49.03
49973;BME280;65693;49.798;10.968;2023-05-22T04:20:07;97867.88;;;19.26;49.14
49973;BME280;65693;49.798;10.968;2023-05-22T04:22:35;97865.88;;;19.28;48.92
49973;BME280;65693;49.798;10.968;2023-05-22T04:25:02;97876.63;;;19.28;49.19
49973;BME280;65693;49.798;10.968;2023-05-22T04:27:29;97867.19;;;19.24;49.17
49973;BME280;65693;49.798;10.968;2023-05-22T04:29:57;97873.41;;;19.24;49.10
49973;BME280;65693;49.798;10.968;2023-05-22T04:32:24;97869.38;;;19.20;49.28
49973;BME280;65693;49.798;10.968;2023-05-22T04:34:51;97873.72;;;19.21;49.06
49973;BME280;65693;49.798;10.968;2023-05-22T04:37:18;97868.50;;;19.19;49.22
49973;BME280;65693;49.798;10.968;2023-05-22T04:39:46;97871.38;;;19.18;49.11
49973;BME280;65693;49.798;10.968;2023-05-22T04:42:12;97876.91;;;19.16;49.34
49973;BME280;65693;49.798;10.968;2023-05-22T04:44:40;97879.44;;;19.18;49.23
49973;BME280;65693;49.798;10.968;2023-05-22T04:47:07;97871.53;;;19.16;49.23
49973;BME280;65693;49.798;10.968;2023-05-22T04:49:36;97878.06;;;19.14;49.33
49973;BME280;65693;49.798;10.968;2023-05-22T04:52:02;97883.44;;;19.14;49.19
49973;BME280;65693;49.798;10.968;2023-05-22T04:54:30;97873.38;;;19.16;49.14
49973;BME280;65693;49.798;10.968;2023-05-22T04:56:58;97877.75;;;19.17;49.26
49973;BME280;65693;49.798;10.968;2023-05-22T04:59:24;97881.25;;;19.09;50.47
49973;BME280;65693;49.798;10.968;2023-05-22T05:01:51;97876.69;;;19.10;50.04
49973;BME280;65693;49.798;10.968;2023-05-22T05:04:17;97880.75;;;19.14;49.72
49973;BME280;65693;49.798;10.968;2023-05-22T05:06:44;97890.78;;;19.12;49.56
49973;BME280;65693;49.798;10.968;2023-05-22T05:09:10;97889.13;;;19.11;49.82
49973;BME280;65693;49.798;10.968;2023-05-22T05:11:37;97879.09;;;19.13;49.79
49973;BME280;65693;49.798;10.968;2023-05-22T05:14:05;97875.53;;;19.12;50.21
49973;BME280;65693;49.798;10.968;2023-05-22T05:16:31;97876.06;;;19.16;50.08
49973;BME280;65693;49.798;10.968;2023-05-22T05:18:57;97878.06;;;19.14;50.04
49973;BME280;65693;49.798;10.968;2023-05-22T05:21:24;97882.06;;;19.10;50.03
49973;BME280;65693;49.798;10.968;2023-05-22T05:23:52;97883.94;;;19.09;50.13
49973;BME280;65693;49.798;10.968;2023-05-22T05:26:18;97877.88;;;19.07;49.91
49973;BME280;65693;49.798;10.968;2023-05-22T05:28:45;97876.69;;;19.10;49.79
49973;BME280;65693;49.798;10.968;2023-05-22T05:31:13;97884.06;;;19.08;49.90
49973;BME280;65693;49.798;10.968;2023-05-22T05:33:39;97882.38;;;19.07;50.04
49973;BME280;65693;49.798;10.968;2023-05-22T05:36:06;97884.06;;;19.08;49.97
49973;BME280;65693;49.798;10.968;2023-05-22T05:38:33;97882.25;;;19.08;49.87
49973;BME280;65693;49.798;10.968;2023-05-22T05:40:59;97884.06;;;19.08;49.84
49973;BME280;65693;49.798;10.968;2023-05-22T05:43:25;97870.66;;;19.08;49.76
49973;BME280;65693;49.798;10.968;2023-05-22T05:45:52;97882.25;;;19.08;49.78
49973;BME280;65693;49.798;10.968;2023-05-22T05:48:20;97886.44;;;19.11;49.82
49973;BME280;65693;49.798;10.968;2023-05-22T05:50:46;97878.22;;;19.12;49.66
49973;BME280;65693;49.798;10.968;2023-05-22T05:53:13;97883.75;;;19.11;49.70
49973;BME280;65693;49.798;10.968;2023-05-22T05:55:39;97884.59;;;19.11;49.74
49973;BME280;65693;49.798;10.968;2023-05-22T05:58:06;97890.66;;;19.13;49.72
49973;BME280;65693;49.798;10.968;2023-05-22T06:00:32;97880.75;;;19.14;49.61
49973;BME280;65693;49.798;10.968;2023-05-22T06:02:58;97879.75;;;19.15;49.62
49973;BME280;65693;49.798;10.968;2023-05-22T06:05:26;97881.44;;;19.16;49.53
49973;BME280;65693;49.798;10.968;2023-05-22T06:07:53;97886.81;;;19.16;49.73
49973;BME280;65693;49.798;10.968;2023-05-22T06:10:22;97881.44;;;19.16;49.54
49973;BME280;65693;49.798;10.968;2023-05-22T06:12:48;97883.94;;;19.17;49.54
49973;BME280;65693;49.798;10.968;2023-05-22T06:15:15;97888.50;;;19.17;49.51
49973;BME280;65693;49.798;10.968;2023-05-22T06:17:42;97880.25;;;19.18;49.51
49973;BME280;65693;49.798;10.968;2023-05-22T06:20:09;97879.44;;;19.18;49.39
49973;BME280;65693;49.798;10.968;2023-05-22T06:22:37;97879.25;;;19.19;49.34
49973;BME280;65693;49.798;10.968;2023-05-22T06:25:04;97881.94;;;19.19;49.39
49973;BME280;65693;49.798;10.968;2023-05-22T06:27:31;97879.09;;;19.21;49.56
49973;BME280;65693;49.798;10.968;2023-05-22T06:29:57;97879.09;;;19.21;49.37
49973;BME280;65693;49.798;10.968;2023-05-22T06:32:24;97879.09;;;19.21;49.47
49973;BME280;65693;49.798;10.968;2023-05-22T06:34:50;97879.09;;;19.21;49.61
49973;BME280;65693;49.798;10.968;2023-05-22T06:37:17;97874.59;;;19.22;49.58
49973;BME280;65693;49.798;10.968;2023-05-22T06:39:45;97878.09;;;19.22;49.83
49973;BME280;65693;49.798;10.968;2023-05-22T06:42:11;97877.09;;;19.23;49.48
49973;BME280;65693;49.798;10.968;2023-05-22T06:44:37;97872.56;;;19.24;49.63
49973;BME280;65693;49.798;10.968;2023-05-22T06:47:04;97872.72;;;19.22;49.64
49973;BME280;65693;49.798;10.968;2023-05-22T06:49:31;97878.94;;;19.23;49.68
49973;BME280;65693;49.798;10.968;2023-05-22T06:51:57;97871.72;;;19.23;49.50
49973;BME280;65693;49.798;10.968;2023-05-22T06:54:23;97876.25;;;19.23;49.75
49973;BME280;65693;49.798;10.968;2023-05-22T06:56:54;97877.94;;;19.24;49.80
49973;BME280;65693;49.798;10.968;2023-05-22T06:59:20;97874.41;;;19.23;49.49
49973;BME280;65693;49.798;10.968;2023-05-22T07:01:47;97872.72;;;19.22;49.77
49973;BME280;65693;49.798;10.968;2023-05-22T07:04:13;97880.78;;;19.22;49.71
49973;BME280;65693;49.798;10.968;2023-05-22T07:06:40;97886.84;;;19.24;49.65
49973;BME280;65693;49.798;10.968;2023-05-22T07:09:07;97890.38;;;19.25;49.75
49973;BME280;65693;49.798;10.968;2023-05-22T07:11:36;97891.38;;;19.24;49.53
49973;BME280;65693;49.798;10.968;2023-05-22T07:14:04;97885.81;;;19.25;49.65
49973;BME280;65693;49.798;10.968;2023-05-22T07:16:31;97884.16;;;19.24;49.75
49973;BME280;65693;49.798;10.968;2023-05-22T07:18:58;97885.81;;;19.25;49.76
49973;BME280;65693;49.798;10.968;2023-05-22T07:21:25;97882.31;;;19.25;49.78
49973;BME280;65693;49.798;10.968;2023-05-22T07:23:54;97892.88;;;19.26;49.72
49973;BME280;65693;49.798;10.968;2023-05-22T07:26:20;97886.84;;;19.24;49.85
49973;BME280;65693;49.798;10.968;2023-05-22T07:28:47;97890.03;;;19.28;49.60
49973;BME280;65693;49.798;10.968;2023-05-22T07:31:15;97887.50;;;19.26;49.75
49973;BME280;65693;49.798;10.968;2023-05-22T07:33:41;97883.69;;;19.29;49.86
49973;BME280;65693;49.798;10.968;2023-05-22T07:36:08;97888.91;;;19.30;49.61
49973;BME280;65693;49.798;10.968;2023-05-22T07:38:34;97881.53;;;19.32;49.78
49973;BME280;65693;49.798;10.968;2023-05-22T07:41:01;97887.06;;;19.31;49.78
49973;BME280;65693;49.798;10.968;2023-05-22T07:43:28;97880.88;;;19.30;49.71
49973;BME280;65693;49.798;10.968;2023-05-22T07:45:55;97881.53;;;19.32;49.54
49973;BME280;65693;49.798;10.968;2023-05-22T07:48:23;97888.59;;;19.33;49.57
49973;BME280;65693;49.798;10.968;2023-05-22T07:50:49;97888.59;;;19.33;49.69
49973;BME280;65693;49.798;10.968;2023-05-22T07:53:16;97891.44;;;19.32;49.54
49973;BME280;65693;49.798;10.968;2023-05-22T07:55:42;97884.22;;;19.32;49.50
49973;BME280;65693;49.798;10.968;2023-05-22T07:58:09;97889.28;;;19.36;49.53
49973;BME280;65693;49.798;10.968;2023-05-22T08:00:35;97885.72;;;19.35;49.71
49973;BME280;65693;49.798;10.968;2023-05-22T08:03:02;97887.25;;;19.38;49.70
49973;BME280;65693;49.798;10.968;2023-05-22T08:05:30;97884.91;;;19.35;49.43
49973;BME280;65693;49.798;10.968;2023-05-22T08:07:56;97888.41;;;19.35;49.88
49973;BME280;65693;49.798;10.968;2023-05-22T08:10:23;97886.59;;;19.36;49.53
49973;BME280;65693;49.798;10.968;2023-05-22T08:12:49;97895.66;;;19.35;49.70
49973;BME280;65693;49.798;10.968;2023-05-22T08:15:16;97889.94;;;19.38;49.81
49973;BME280;65693;49.798;10.968;2023-05-22T08:17:42;97881.72;;;19.39;49.64
49973;BME280;65693;49.798;10.968;2023-05-22T08:20:09;97885.44;;;19.38;49.67
49973;BME280;65693;49.798;10.968;2023-05-22T08:22:37;97881.06;;;19.37;49.79
49973;BME280;65693;49.798;10.968;2023-05-22T08:25:04;97881.72;;;19.39;49.51
49973;BME280;65693;49.798;10.968;2023-05-22T08:27:31;97886.09;;;19.40;49.68
49973;BME280;65693;49.798;10.968;2023-05-22T08:29:57;97879.88;;;19.40;49.55
49973;BME280;65693;49.798;10.968;2023-05-22T08:32:23;97886.09;;;19.40;49.59
49973;BME280;65693;49.798;10.968;2023-05-22T08:34:50;97880.88;;;19.39;49.74
49973;BME280;65693;49.798;10.968;2023-05-22T08:37:16;97880.72;;;19.40;49.57
49973;BME280;65693;49.798;10.968;2023-05-22T08:39:44;97886.94;;;19.41;49.70
49973;BME280;65693;49.798;10.968;2023-05-22T08:42:10;97880.53;;;19.42;49.44
49973;BME280;65693;49.798;10.968;2023-05-22T08:44:37;97876.34;;;19.39;49.58
49973;BME280;65693;49.798;10.968;2023-05-22T08:47:05;97875.16;;;19.42;49.64
49973;BME280;65693;49.798;10.968;2023-05-22T08:49:35;97872.47;;;19.42;49.76
49973;BME280;65693;49.798;10.968;2023-05-22T08:52:06;97872.47;;;19.42;49.47
49973;BME280;65693;49.798;10.968;2023-05-22T08:54:40;97880.53;;;19.42;49.64
49973;BME280;65693;49.798;10.968;2023-05-22T08:57:08;97876.69;;;19.44;49.62
49973;BME280;65693;49.798;10.968;2023-05-22T08:59:37;97869.66;;;19.43;49.80
49973;BME280;65693;49.798;10.968;2023-05-22T09:02:04;97876.56;;;19.46;49.91
49973;BME280;65693;49.798;10.968;2023-05-22T09:04:31;97860.44;;;19.46;49.69
49973;BME280;65693;49.798;10.968;2023-05-22T09:06:57;97858.56;;;19.46;49.67
49973;BME280;65693;49.798;10.968;2023-05-22T09:09:29;97858.72;;;19.45;49.79
49973;BME280;65693;49.798;10.968;2023-05-22T09:11:56;97865.81;;;19.46;49.81
49973;BME280;65693;49.798;10.968;2023-05-22T09:14:24;97857.75;;;19.46;49.86
49973;BME280;65693;49.798;10.968;2023-05-22T09:16:51;97847.97;;;19.45;50.20
49973;BME280;65693;49.798;10.968;2023-05-22T09:19:19;97852.38;;;19.46;49.87
49973;BME280;65693;49.798;10.968;2023-05-22T09:21:45;97850.50;;;19.46;49.64
49973;BME280;65693;49.798;10.968;2023-05-22T09:24:12;97842.44;;;19.46;49.78
49973;BME280;65693;49.798;10.968;2023-05-22T09:26:39;97840.75;;;19.45;49.73
49973;BME280;65693;49.798;10.968;2023-05-22T09:29:05;97847.66;;;19.48;49.98
49973;BME280;65693;49.798;10.968;2023-05-22T09:31:39;97853.03;;;19.48;49.76
49973;BME280;65693;49.798;10.968;2023-05-22T09:34:06;97842.97;;;19.50;49.75
49973;BME280;65693;49.798;10.968;2023-05-22T09:36:34;97851.03;;;19.50;49.75
49973;BME280;65693;49.798;10.968;2023-05-22T09:39:02;97845.66;;;19.50;49.84
49973;BME280;65693;49.798;10.968;2023-05-22T09:41:32;97843.63;;;19.52;49.62
49973;BME280;65693;49.798;10.968;2023-05-22T09:43:59;97840.94;;;19.52;49.91
49973;BME280;65693;49.798;10.968;2023-05-22T09:46:25;97843.31;;;19.55;49.88
49973;BME280;65693;49.798;10.968;2023-05-22T09:48:53;97839.94;;;19.53;50.28
49973;BME280;65693;49.798;10.968;2023-05-22T09:51:20;97843.31;;;19.55;49.92
49973;BME280;65693;49.798;10.968;2023-05-22T09:53:48;97837.94;;;19.55;49.84
49973;BME280;65693;49.798;10.968;2023-05-22T09:56:17;97840.63;;;19.55;49.88
49973;BME280;65693;49.798;10.968;2023-05-22T09:58:47;97837.59;;;19.58;50.00
49973;BME280;65693;49.798;10.968;2023-05-22T10:01:17;97827.84;;;19.57;49.88
49973;BME280;65693;49.798;10.968;2023-05-22T10:03:46;97834.91;;;19.58;49.90
49973;BME280;65693;49.798;10.968;2023-05-22T10:06:17;97831.38;;;19.58;49.61
49973;BME280;65693;49.798;10.968;2023-05-22T10:08:48;97826.03;;;19.58;49.77
49973;BME280;65693;49.798;10.968;2023-05-22T10:11:16;97827.69;;;19.59;49.80
49973;BME280;65693;49.798;10.968;2023-05-22T10:13:43;97824.00;;;19.60;49.90
49973;BME280;65693;49.798;10.968;2023-05-22T10:16:12;97824.00;;;19.60;49.87
49973;BME280;65693;49.798;10.968;2023-05-22T10:18:41;97818.63;;;19.60;49.63
49973;BME280;65693;49.798;10.968;2023-05-22T10:21:10;97817.63;;;19.61;49.88
49973;BME280;65693;49.798;10.968;2023-05-22T10:23:39;97815.75;;;19.61;49.57
49973;BME280;65693;49.798;10.968;2023-05-22T10:26:07;97817.47;;;19.63;49.77
49973;BME280;65693;49.798;10.968;2023-05-22T10:28:37;97810.22;;;19.63;49.77
49973;BME280;65693;49.798;10.968;2023-05-22T10:31:11;97813.78;;;19.64;49.81
49973;BME280;65693;49.798;10.968;2023-05-22T10:33:45;97809.22;;;19.64;49.70
49973;BME280;65693;49.798;10.968;2023-05-22T10:36:16;97809.22;;;19.64;49.57
49973;BME280;65693;49.798;10.968;2023-05-22T10:39:02;97811.41;;;19.69;50.68
49973;BME280;65693;49.798;10.968;2023-05-22T10:41:30;97806.84;;;19.69;49.56
49973;BME280;65693;49.798;10.968;2023-05-22T10:43:56;97808.72;;;19.69;49.95
49973;BME280;65693;49.798;10.968;2023-05-22T10:46:23;97801.34;;;19.71;49.91
49973;BME280;65693;49.798;10.968;2023-05-22T10:48:51;97807.56;;;19.71;49.93
49973;BME280;65693;49.798;10.968;2023-05-22T10:51:20;97803.88;;;19.72;50.17
49973;BME280;65693;49.798;10.968;2023-05-22T10:53:50;97802.84;;;19.73;49.97
49973;BME280;65693;49.798;10.968;2023-05-22T10:56:19;97804.53;;;19.74;49.92
49973;BME280;65693;49.798;10.968;2023-05-22T10:58:55;97809.56;;;19.78;49.65
49973;BME280;65693;49.798;10.968;2023-05-22T11:01:24;97798.81;;;19.78;49.72
49973;BME280;65693;49.798;10.968;2023-05-22T11:03:53;97798.47;;;19.81;50.58
49973;BME280;65693;49.798;10.968;2023-05-22T11:06:30;97792.28;;;19.80;49.67
49973;BME280;65693;49.798;10.968;2023-05-22T11:08:56;97793.94;;;19.81;49.79
49973;BME280;65693;49.798;10.968;2023-05-22T11:11:25;97788.59;;;19.81;49.58
49973;BME280;65693;49.798;10.968;2023-05-22T11:13:52;97784.88;;;19.82;49.68
49973;BME280;65693;49.798;10.968;2023-05-22T11:16:30;97789.06;;;19.85;49.53
49973;BME280;65693;49.798;10.968;2023-05-22T11:19:01;97789.06;;;19.85;49.48
49973;BME280;65693;49.798;10.968;2023-05-22T11:21:30;97792.59;;;19.85;49.68
49973;BME280;65693;49.798;10.968;2023-05-22T11:23:59;97785.88;;;19.89;49.98
49973;BME280;65693;49.798;10.968;2023-05-22T11:26:27;97784.19;;;19.88;49.71
49973;BME280;65693;49.798;10.968;2023-05-22T11:28:54;97784.88;;;19.90;49.81
49973;BME280;65693;49.798;10.968;2023-05-22T11:31:20;97783.84;;;19.92;49.53
49973;BME280;65693;49.798;10.968;2023-05-22T11:33:52;97783.84;;;19.92;50.55
49973;BME280;65693;49.798;10.968;2023-05-22T11:36:18;97780.81;;;19.95;49.94
49973;BME280;65693;49.798;10.968;2023-05-22T11:38:45;97779.00;;;19.95;51.20
49973;BME280;65693;49.798;10.968;2023-05-22T11:41:11;97779.00;;;19.95;49.81
49973;BME280;65693;49.798;10.968;2023-05-22T11:43:41;97772.44;;;19.98;50.55
49973;BME280;65693;49.798;10.968;2023-05-22T11:46:08;97778.50;;;20.00;50.56
49973;BME280;65693;49.798;10.968;2023-05-22T11:48:39;97772.09;;;20.01;50.03
49973;BME280;65693;49.798;10.968;2023-05-22T11:51:06;97772.91;;;20.01;50.24
49973;BME280;65693;49.798;10.968;2023-05-22T11:53:33;97765.56;;;20.03;50.49
49973;BME280;65693;49.798;10.968;2023-05-22T11:56:00;97769.72;;;20.06;50.50
49973;BME280;65693;49.798;10.968;2023-05-22T11:58:28;97765.22;;;20.07;50.13
49973;BME280;65693;49.798;10.968;2023-05-22T12:00:58;97760.66;;;20.07;49.73
49973;BME280;65693;49.798;10.968;2023-05-22T12:03:25;97763.19;;;20.09;49.74
49973;BME280;65693;49.798;10.968;2023-05-22T12:05:52;97760.50;;;20.09;49.92
49973;BME280;65693;49.798;10.968;2023-05-22T12:08:19;97757.63;;;20.10;49.70
49973;BME280;65693;49.798;10.968;2023-05-22T12:10:46;97766.38;;;20.12;49.73
49973;BME280;65693;49.798;10.968;2023-05-22T12:13:14;97761.81;;;20.13;49.49
49973;BME280;65693;49.798;10.968;2023-05-22T12:15:46;97755.44;;;20.14;49.50
49973;BME280;65693;49.798;10.968;2023-05-22T12:18:16;97755.28;;;20.15;49.65
49973;BME280;65693;49.798;10.968;2023-05-22T12:20:43;97754.25;;;20.16;49.43
49973;BME280;65693;49.798;10.968;2023-05-22T12:23:10;97756.94;;;20.16;49.66
49973;BME280;65693;49.798;10.968;2023-05-22T12:25:37;97755.09;;;20.17;49.37
49973;BME280;65693;49.798;10.968;2023-05-22T12:28:05;97753.06;;;20.19;49.86
49973;BME280;65693;49.798;10.968;2023-05-22T12:30:38;97752.06;;;20.20;49.68
49973;BME280;65693;49.798;10.968;2023-05-22T12:33:11;97751.91;;;20.22;49.92
49973;BME280;65693;49.798;10.968;2023-05-22T12:35:38;97748.22;;;20.23;49.70
49973;BME280;65693;49.798;10.968;2023-05-22T12:38:06;97741.81;;;20.24;49.57
49973;BME280;65693;49.798;10.968;2023-05-22T12:40:33;97746.03;;;20.26;50.00
49973;BME280;65693;49.798;10.968;2023-05-22T12:43:00;97742.31;;;20.27;49.80
49973;BME280;65693;49.798;10.968;2023-05-22T12:45:26;97737.78;;;20.28;49.83
49973;BME280;65693;49.798;10.968;2023-05-22T12:47:53;97740.31;;;20.29;49.53
49973;BME280;65693;49.798;10.968;2023-05-22T12:50:19;97743.84;;;20.30;49.93
49973;BME280;65693;49.798;10.968;2023-05-22T12:52:47;97735.59;;;20.31;49.54
49973;BME280;65693;49.798;10.968;2023-05-22T12:55:15;97736.44;;;20.32;50.28